CheckWX is a tool to help pilots better visualize weather data.  It is not intended as a substitute for an official pre-flight weather briefing.

01:42:30 UTC

EGWU TAF
RAF Northolt Airport
London, United Kingdom
TAF EGWU 181645Z 1818/1912 23010KT 9999 SCT045 PROB30 TEMPO 1907/1910 SCT018 TEMPO 1909/1912 7000 SHRA PROB30 TEMPO 1910/1912 4000 +SHRA SCT024CB

Aug-18@
18:00 UTC

Aug-18 @ 18:00 UTC

Aug-19@
12:00 UTC

Aug-19 @ 12:00 UTC

TAF EGWU 181645Z 1818/1912 23010KT 9999 SCT045
Wind
  • 230° at 10 KTS
Cloud Levels
  • Scattered at 4,500' AGL

Aug-19@
07:00 UTC

Aug-19 @ 07:00 UTC

Aug-19@
10:00 UTC

Aug-19 @ 10:00 UTC

PROB30 TEMPO 1907/1910 SCT018

Temporary - 30% Likelihood

Temporary - 30% Likelihood during this time.

Cloud Levels
  • Scattered at 1,800' AGL

Aug-19@
09:00 UTC

Aug-19 @ 09:00 UTC

Aug-19@
12:00 UTC

Aug-19 @ 12:00 UTC

TEMPO 1909/1912 7000 SHRA

Temporary

Temporary Changes expected for less than half the time period

Conditions
Rain

Aug-19@
10:00 UTC

Aug-19 @ 10:00 UTC

Aug-19@
12:00 UTC

Aug-19 @ 12:00 UTC

PROB30 TEMPO 1910/1912 4000 +SHRA SCT024CB

Temporary - 30% Likelihood

Temporary - 30% Likelihood during this time.

Conditions
Heavy Rain
Cloud Levels
  • Scattered at 2,400' AGL